Time;durP1;ratioP1;P1;durP2;ratioP2;P2;SDS_P1;SDS_P2;PMS_P1;PMS_P2;Temp;Humidity;BMP_temperature;BMP_pressure;BME280_temperature;BME280_humidity;BME280_pressure;Samples;Min_cycle;Max_cycle;Signal;HPM_P1;HPM_P2
2022/06/26 08:14:34;;;;;;;11.80;3.47;;;27.80;99.90;;;;;;5062660;28;20958;-87
2022/06/26 08:17:00;;;;;;;10.30;3.03;;;27.50;99.90;;;;;;5066896;28;20032;-87
2022/06/26 08:19:25;;;;;;;7.63;2.70;;;27.40;99.90;;;;;;5060287;28;20020;-88
2022/06/26 08:22:00;;;;;;;9.25;3.20;;;27.30;99.90;;;;;;5065241;28;20387;-88
2022/06/26 08:24:26;;;;;;;11.85;3.15;;;27.20;99.90;;;;;;5061358;28;20555;-89
2022/06/26 08:26:52;;;;;;;8.63;3.10;;;27.20;99.90;;;;;;5049404;28;20119;-89
2022/06/26 08:29:18;;;;;;;8.00;2.80;;;27.30;99.90;;;;;;5049935;28;20434;-90
2022/06/26 08:31:43;;;;;;;11.05;3.25;;;27.30;99.90;;;;;;5051679;28;20480;-89
2022/06/26 08:34:09;;;;;;;9.70;3.17;;;27.30;99.90;;;;;;5049375;28;20029;-90
2022/06/26 08:36:35;;;;;;;6.65;2.80;;;27.40;99.90;;;;;;5058066;28;20029;-88
2022/06/26 08:39:01;;;;;;;12.18;3.03;;;27.60;99.90;;;;;;5063941;28;20045;-94
2022/06/26 08:41:29;;;;;;;14.43;3.20;;;27.70;99.90;;;;;;5056498;28;20057;-92
2022/06/26 08:43:58;;;;;;;9.02;3.38;;;27.60;99.90;;;;;;5052678;28;20051;-95
2022/06/26 08:46:27;;;;;;;11.70;3.30;;;27.40;99.90;;;;;;5063958;28;20025;-92
2022/06/26 08:48:56;;;;;;;11.15;3.55;;;27.40;99.90;;;;;;5066590;28;20021;-92
2022/06/26 08:51:22;;;;;;;16.13;3.17;;;27.30;99.90;;;;;;5050512;28;20053;-91
2022/06/26 08:53:51;;;;;;;16.27;3.45;;;27.30;99.90;;;;;;5047133;28;20045;-88
2022/06/26 08:56:17;;;;;;;13.20;3.50;;;27.40;99.90;;;;;;5054023;28;20029;-89
2022/06/26 08:58:43;;;;;;;8.25;3.13;;;27.50;99.90;;;;;;5065277;28;20029;-83
2022/06/26 09:01:08;;;;;;;9.90;3.80;;;27.40;99.90;;;;;;5062801;28;20029;-91
2022/06/26 09:03:34;;;;;;;10.38;3.50;;;27.40;99.90;;;;;;5047353;28;20124;-92
2022/06/26 09:06:02;;;;;;;14.27;3.10;;;27.30;99.90;;;;;;5061735;28;20650;-84
2022/06/26 09:08:30;;;;;;;12.30;3.40;;;27.30;99.90;;;;;;5050412;28;20025;-74
2022/06/26 09:10:57;;;;;;;14.07;3.33;;;27.30;99.90;;;;;;5054164;28;20025;-74
2022/06/26 09:13:22;;;;;;;9.52;3.05;;;27.30;99.90;;;;;;5046556;28;20053;-80
2022/06/26 09:15:51;;;;;;;11.57;3.60;;;27.20;99.90;;;;;;5044268;28;20542;-72
2022/06/26 09:18:16;;;;;;;11.48;3.60;;;27.10;99.90;;;;;;5051143;28;20381;-79
2022/06/26 09:20:56;;;;;;;12.20;3.45;;;27.00;99.90;;;;;;5050591;28;20013;-73
2022/06/26 09:23:22;;;;;;;11.63;3.70;;;27.00;99.90;;;;;;5045850;28;20151;-78
2022/06/26 09:25:48;;;;;;;13.23;3.83;;;27.10;99.90;;;;;;5043709;28;20475;-78
2022/06/26 09:28:15;;;;;;;10.48;3.40;;;27.00;99.90;;;;;;5033441;28;20033;-74
2022/06/26 09:30:46;;;;;;;14.73;4.07;;;26.90;99.90;;;;;;5037118;28;20076;-76
2022/06/26 09:33:12;;;;;;;7.90;3.55;;;27.10;99.90;;;;;;5032339;28;20038;-82
2022/06/26 09:35:38;;;;;;;18.25;3.53;;;27.20;99.90;;;;;;5041341;28;20049;-84
2022/06/26 09:38:04;;;;;;;13.27;4.07;;;27.20;99.90;;;;;;5047379;28;20060;-81
2022/06/26 09:40:30;;;;;;;13.48;4.13;;;27.20;99.90;;;;;;5042622;28;20117;-75
2022/06/26 09:42:56;;;;;;;14.38;3.65;;;27.10;99.90;;;;;;5034078;28;20025;-80
2022/06/26 09:45:22;;;;;;;15.57;3.58;;;26.80;99.90;;;;;;5044870;28;20025;-82
2022/06/26 09:47:48;;;;;;;7.30;3.40;;;26.70;99.90;;;;;;5051684;28;20031;-84
2022/06/26 09:50:14;;;;;;;16.95;3.67;;;26.70;99.90;;;;;;5047237;28;20025;-83
2022/06/26 09:52:43;;;;;;;12.32;3.72;;;26.70;99.90;;;;;;5051979;28;20031;-80
2022/06/26 09:55:10;;;;;;;12.77;3.90;;;26.80;99.90;;;;;;5042123;28;20519;-83
2022/06/26 09:57:36;;;;;;;19.00;4.20;;;26.70;99.90;;;;;;5035006;28;20025;-89
2022/06/26 10:00:04;;;;;;;7.38;3.28;;;26.90;99.90;;;;;;5034187;28;20079;-90
2022/06/26 10:08:06;;;;;;;13.52;3.38;;;26.70;99.90;;;;;;5029692;28;20500;-87
2022/06/26 10:10:33;;;;;;;13.60;3.88;;;27.00;99.90;;;;;;5041675;28;20033;-88
2022/06/26 10:13:03;;;;;;;13.35;3.50;;;26.80;99.90;;;;;;5032653;28;20073;-93
2022/06/26 10:15:52;;;;;;;18.02;4.00;;;26.70;99.90;;;;;;5043690;28;20079;-91
2022/06/26 10:18:44;;;;;;;15.55;4.05;;;26.70;99.90;;;;;;5031753;28;20034;-90
2022/06/26 10:21:13;;;;;;;13.80;4.13;;;26.90;99.90;;;;;;5042341;28;20045;-91
2022/06/26 10:23:40;;;;;;;12.55;3.90;;;26.90;99.90;;;;;;5050489;28;20773;-90
2022/06/26 10:26:20;;;;;;;14.10;4.07;;;27.00;99.90;;;;;;5038217;28;20026;-90
2022/06/26 10:29:07;;;;;;;21.08;4.30;;;26.90;99.90;;;;;;5034384;28;20025;-89
2022/06/26 10:31:52;;;;;;;16.00;4.10;;;26.80;99.90;;;;;;5041390;28;20027;-90
2022/06/26 10:34:22;;;;;;;13.25;3.90;;;26.90;99.90;;;;;;5036030;28;20045;-92
2022/06/26 10:37:14;;;;;;;12.45;3.80;;;26.80;99.90;;;;;;5048172;28;20017;-89
2022/06/26 10:39:43;;;;;;;13.18;3.90;;;26.70;99.90;;;;;;5031601;28;20072;-91
2022/06/26 10:45:23;;;;;;;17.65;3.75;;;26.70;99.90;;;;;;5039524;28;20044;-91
2022/06/26 10:47:51;;;;;;;14.45;4.05;;;26.70;99.90;;;;;;5013777;28;20030;-91
2022/06/26 10:50:37;;;;;;;12.45;3.83;;;26.60;99.90;;;;;;5039414;28;20492;-90
2022/06/26 10:53:16;;;;;;;10.18;4.22;;;26.60;99.90;;;;;;5013066;28;20036;-92
2022/06/26 10:55:44;;;;;;;14.40;4.40;;;26.80;99.90;;;;;;5045237;28;20115;-93
2022/06/26 10:58:27;;;;;;;20.45;4.30;;;26.80;99.90;;;;;;5051938;28;20064;-91
2022/06/26 11:00:57;;;;;;;14.10;4.07;;;27.10;99.90;;;;;;5039212;28;20025;-91
2022/06/26 11:03:23;;;;;;;15.63;4.18;;;27.00;99.90;;;;;;5032811;28;20112;-92
2022/06/26 11:06:04;;;;;;;13.65;4.00;;;27.10;99.90;;;;;;5038609;28;20036;-86
2022/06/26 11:08:38;;;;;;;12.25;3.85;;;27.10;99.90;;;;;;5044464;28;20385;-92
2022/06/26 11:11:10;;;;;;;20.98;4.80;;;27.00;99.90;;;;;;5047553;28;20012;-92
2022/06/26 11:14:07;;;;;;;10.40;3.53;;;27.00;99.90;;;;;;5053004;28;20122;-91
2022/06/26 11:16:43;;;;;;;11.18;3.53;;;27.20;99.90;;;;;;5038515;28;20026;-92
2022/06/26 11:20:46;;;;;;;15.07;4.35;;;27.30;99.90;;;;;;5042230;28;20080;-93
2022/06/26 11:22:18;;;;;;;10.15;3.45;;;27.50;99.90;;;;;;5015012;28;20041;-92
2022/06/26 11:24:59;;;;;;;16.15;3.60;;;27.80;99.90;;;;;;5034259;28;20029;-91
2022/06/26 11:27:26;;;;;;;12.05;3.90;;;28.00;99.90;;;;;;5041370;28;20085;-90
2022/06/26 11:29:52;;;;;;;12.02;4.55;;;27.60;99.90;;;;;;5039249;28;20025;-90
2022/06/26 11:32:22;;;;;;;12.32;3.90;;;27.60;99.90;;;;;;5051877;28;20029;-88
2022/06/26 11:34:52;;;;;;;14.35;4.68;;;27.60;99.90;;;;;;5047960;28;20086;-93
2022/06/26 11:37:35;;;;;;;21.90;4.32;;;27.70;99.90;;;;;;5047801;28;20121;-90
2022/06/26 11:40:10;;;;;;;;;;;27.60;99.90;;;;;;5035868;28;20090;-94
2022/06/26 11:42:36;;;;;;;13.20;3.50;;;27.80;99.90;;;;;;5053887;28;20321;-87
2022/06/26 11:45:01;;;;;;;15.77;4.60;;;27.90;99.90;;;;;;5044731;28;20025;-89
2022/06/26 11:47:27;;;;;;;14.65;4.00;;;27.70;99.90;;;;;;5051850;28;20025;-92
2022/06/26 11:49:53;;;;;;;10.35;3.50;;;27.80;99.90;;;;;;5046462;28;20025;-93
2022/06/26 11:52:19;;;;;;;14.98;4.07;;;27.90;99.90;;;;;;5035879;28;20025;-89
2022/06/26 11:54:45;;;;;;;11.57;3.65;;;27.70;99.90;;;;;;5037898;28;20167;-93
2022/06/26 11:57:12;;;;;;;18.92;4.65;;;27.60;99.90;;;;;;5052744;28;20484;-94
2022/06/26 11:59:42;;;;;;;9.40;3.58;;;27.70;99.90;;;;;;5047726;28;20365;-89
2022/06/26 12:02:22;;;;;;;16.50;4.93;;;27.80;99.90;;;;;;5038227;28;20480;-89
2022/06/26 12:04:59;;;;;;;19.75;4.05;;;28.60;99.90;;;;;;5037373;28;20075;-92
2022/06/26 12:07:25;;;;;;;20.75;4.32;;;31.00;99.90;;;;;;5034710;28;20087;-95
2022/06/26 12:09:51;;;;;;;13.02;4.43;;;33.50;99.90;;;;;;5048262;28;20089;-90
2022/06/26 12:12:17;;;;;;;13.57;4.38;;;34.80;99.90;;;;;;5037008;28;20116;-89
2022/06/26 12:14:50;;;;;;;10.65;3.15;;;35.40;99.90;;;;;;5041208;28;20029;-93
2022/06/26 12:17:22;;;;;;;11.27;4.10;;;36.10;99.90;;;;;;5051637;28;20434;-93
2022/06/26 12:19:48;;;;;;;14.07;4.10;;;35.80;99.90;;;;;;5043220;28;20029;-90
2022/06/26 12:22:24;;;;;;;16.23;3.63;;;35.90;99.90;;;;;;5035707;28;20029;-91
2022/06/26 12:24:58;;;;;;;10.82;3.92;;;35.60;99.90;;;;;;5039309;28;20481;-94
2022/06/26 12:27:39;;;;;;;11.23;3.58;;;36.40;99.90;;;;;;5035508;28;20484;-90
2022/06/26 12:30:25;;;;;;;13.25;3.70;;;37.10;99.90;;;;;;5043180;28;20440;-93
2022/06/26 12:32:51;;;;;;;11.45;3.65;;;37.20;99.90;;;;;;5011947;28;20041;-92
2022/06/26 12:35:17;;;;;;;12.70;3.70;;;36.80;99.90;;;;;;5015782;28;20030;-90
2022/06/26 12:37:43;;;;;;;12.85;3.47;;;37.10;99.90;;;;;;5045936;28;20112;-92
2022/06/26 12:40:10;;;;;;;22.40;4.10;;;37.40;99.90;;;;;;5038609;28;20056;-91
2022/06/26 12:42:36;;;;;;;10.65;3.35;;;38.00;99.90;;;;;;5038389;28;20032;-92
2022/06/26 12:45:01;;;;;;;10.95;3.63;;;39.00;99.90;;;;;;5047942;28;20064;-91
2022/06/26 12:47:27;;;;;;;15.55;3.88;;;38.90;99.90;;;;;;5054074;28;20025;-92
2022/06/26 12:49:53;;;;;;;17.63;3.80;;;39.40;99.90;;;;;;5054861;28;20373;-94
2022/06/26 12:52:18;;;;;;;14.60;3.65;;;38.80;99.90;;;;;;5059835;28;20081;-93
2022/06/26 12:54:44;;;;;;;15.40;4.80;;;38.60;99.90;;;;;;5046365;28;20538;-95
2022/06/26 12:57:10;;;;;;;13.05;3.25;;;38.80;99.90;;;;;;5046232;28;20037;-92
2022/06/26 12:59:35;;;;;;;8.02;3.20;;;39.40;99.90;;;;;;5046747;28;20037;-92
2022/06/26 13:02:02;;;;;;;12.30;3.30;;;40.00;99.90;;;;;;5034938;28;20566;-88
2022/06/26 13:04:27;;;;;;;15.85;3.55;;;40.80;98.50;;;;;;5040830;28;20029;-92
2022/06/26 13:06:53;;;;;;;7.53;2.92;;;40.20;99.90;;;;;;5046528;28;20032;-89
2022/06/26 13:09:19;;;;;;;10.23;3.40;;;40.00;99.40;;;;;;5041931;28;20099;-90
2022/06/26 13:11:44;;;;;;;12.00;3.58;;;40.00;99.90;;;;;;5043779;28;20029;-90
2022/06/26 13:14:10;;;;;;;11.77;3.78;;;39.80;98.90;;;;;;5038233;28;20045;-93
2022/06/26 13:16:38;;;;;;;15.20;3.60;;;38.80;99.90;;;;;;5047018;28;20021;-91
2022/06/26 13:19:04;;;;;;;12.65;3.63;;;39.00;99.90;;;;;;5036707;28;20024;-91
2022/06/26 13:21:31;;;;;;;12.82;3.42;;;38.70;99.90;;;;;;5050399;28;20053;-89
2022/06/26 13:23:57;;;;;;;8.40;3.40;;;38.00;99.90;;;;;;5051800;28;20025;-94
2022/06/26 13:26:23;;;;;;;12.32;3.70;;;39.50;99.90;;;;;;5047247;28;20380;-94
2022/06/26 13:28:48;;;;;;;12.18;3.97;;;39.10;99.90;;;;;;5042832;28;20030;-93
2022/06/26 13:31:14;;;;;;;11.75;3.33;;;38.70;99.90;;;;;;5056790;28;20028;-93
2022/06/26 13:33:40;;;;;;;10.38;3.60;;;38.90;99.90;;;;;;5054647;28;20037;-93
2022/06/26 13:36:06;;;;;;;9.05;3.63;;;40.50;99.90;;;;;;5049730;28;20027;-93
2022/06/26 13:38:33;;;;;;;7.53;3.10;;;40.40;99.90;;;;;;5048248;28;20108;-88
2022/06/26 13:40:59;;;;;;;16.35;3.42;;;40.50;99.70;;;;;;5054182;28;20021;-94
2022/06/26 13:43:25;;;;;;;12.65;3.38;;;39.90;99.90;;;;;;5056026;28;20073;-94
2022/06/26 13:45:51;;;;;;;9.88;2.90;;;39.40;99.90;;;;;;5053297;28;20064;-91
2022/06/26 13:48:17;;;;;;;18.13;3.50;;;38.50;99.90;;;;;;5037571;28;20095;-89
2022/06/26 13:50:42;;;;;;;7.50;3.67;;;37.50;99.90;;;;;;5045160;28;20104;-91
2022/06/26 13:53:09;;;;;;;12.65;3.13;;;36.90;99.90;;;;;;5036352;28;20120;-92
2022/06/26 13:55:35;;;;;;;11.25;3.50;;;37.30;99.90;;;;;;5037112;28;20143;-94
2022/06/26 13:58:00;;;;;;;11.95;3.30;;;36.60;99.90;;;;;;5035558;28;20496;-93
2022/06/26 14:00:26;;;;;;;15.55;4.28;;;36.90;99.90;;;;;;5051542;28;20032;-90
2022/06/26 14:02:52;;;;;;;14.13;3.95;;;37.00;99.90;;;;;;5052986;28;20392;-89
2022/06/26 14:05:17;;;;;;;15.75;3.90;;;36.90;99.90;;;;;;5043089;28;20036;-90
2022/06/26 14:07:43;;;;;;;13.02;3.42;;;36.60;99.90;;;;;;5032643;28;20112;-89
2022/06/26 14:10:09;;;;;;;10.85;3.30;;;37.10;99.90;;;;;;5036563;28;20510;-87
2022/06/26 14:12:35;;;;;;;12.20;3.47;;;36.60;99.90;;;;;;5051506;28;20482;-88
2022/06/26 14:15:01;;;;;;;10.15;3.47;;;36.20;99.90;;;;;;5040676;28;20033;-86
2022/06/26 14:17:26;;;;;;;10.60;3.70;;;36.30;99.90;;;;;;5033720;28;20018;-95
2022/06/26 14:19:55;;;;;;;22.90;3.63;;;36.20;99.90;;;;;;5041328;28;20025;-87
2022/06/26 14:27:49;;;;;;;15.07;3.80;;;35.00;99.90;;;;;;5051442;28;20063;-87
2022/06/26 14:30:14;;;;;;;18.65;3.65;;;35.30;99.90;;;;;;5042461;28;20441;-88
2022/06/26 14:32:40;;;;;;;10.70;3.35;;;35.50;99.90;;;;;;5034336;28;20043;-95
2022/06/26 14:35:06;;;;;;;15.10;3.58;;;35.60;99.90;;;;;;5042048;28;20029;-87
2022/06/26 14:37:32;;;;;;;11.00;3.28;;;35.60;99.90;;;;;;5035609;28;20060;-94
2022/06/26 14:39:58;;;;;;;15.75;3.60;;;35.70;99.90;;;;;;5036616;28;20025;-91
2022/06/26 14:42:24;;;;;;;12.27;3.42;;;35.70;99.90;;;;;;5016546;28;20385;-95
2022/06/26 14:44:49;;;;;;;12.15;3.72;;;35.60;99.90;;;;;;5036859;28;20102;-94
2022/06/26 14:47:18;;;;;;;12.15;2.95;;;35.20;99.90;;;;;;5036846;28;20602;-93
2022/06/26 14:49:44;;;;;;;12.77;3.33;;;35.10;99.90;;;;;;5038134;28;20313;-85
2022/06/26 14:52:09;;;;;;;14.55;3.67;;;34.70;99.90;;;;;;5051079;28;20025;-92
2022/06/26 14:54:35;;;;;;;8.23;3.10;;;34.50;99.90;;;;;;5047721;28;20092;-92
2022/06/26 14:57:01;;;;;;;11.27;3.75;;;34.20;99.90;;;;;;5034446;28;20072;-93
2022/06/26 14:59:26;;;;;;;9.25;3.15;;;34.30;99.90;;;;;;5041000;28;20388;-92
2022/06/26 15:01:52;;;;;;;10.98;3.55;;;34.40;99.90;;;;;;5047724;28;20029;-89
2022/06/26 15:04:18;;;;;;;8.07;3.45;;;34.60;99.90;;;;;;5051878;28;20495;-87
2022/06/26 15:06:43;;;;;;;13.00;3.70;;;35.10;99.90;;;;;;5052283;28;20032;-88
2022/06/26 15:09:09;;;;;;;14.35;3.30;;;35.10;99.90;;;;;;5040757;28;20028;-88
2022/06/26 15:11:35;;;;;;;12.57;3.33;;;35.20;99.90;;;;;;5039042;28;20079;-94
2022/06/26 15:14:01;;;;;;;8.98;2.83;;;34.50;99.90;;;;;;5034636;28;20041;-90
2022/06/26 15:16:26;;;;;;;11.15;3.30;;;34.30;99.90;;;;;;5047693;28;20036;-88
2022/06/26 15:18:52;;;;;;;15.32;3.53;;;34.60;99.90;;;;;;5048634;28;20071;-88
2022/06/26 15:21:18;;;;;;;11.88;3.35;;;34.00;99.90;;;;;;5041546;28;20026;-88
2022/06/26 15:23:43;;;;;;;11.52;2.70;;;33.40;99.90;;;;;;5033082;28;20029;-86
2022/06/26 15:26:11;;;;;;;10.85;3.30;;;32.80;99.90;;;;;;5046957;28;20471;-85
2022/06/26 15:28:37;;;;;;;13.25;3.40;;;32.90;99.90;;;;;;5049836;28;20028;-91
2022/06/26 15:31:03;;;;;;;5.45;2.60;;;32.90;99.90;;;;;;5042823;28;20025;-88
2022/06/26 15:33:28;;;;;;;11.05;3.58;;;32.50;99.90;;;;;;5050238;28;20094;-87
2022/06/26 15:35:54;;;;;;;8.93;3.42;;;32.00;99.90;;;;;;5046438;28;20052;-89
2022/06/26 15:38:20;;;;;;;9.85;3.33;;;31.90;99.90;;;;;;5044374;28;20133;-87
2022/06/26 15:40:45;;;;;;;11.30;3.47;;;31.90;99.90;;;;;;5041254;28;20444;-88
2022/06/26 15:43:11;;;;;;;7.70;2.53;;;31.70;99.90;;;;;;5031700;28;20404;-88
2022/06/26 15:45:37;;;;;;;10.32;2.67;;;31.60;99.90;;;;;;5037331;28;20099;-86
2022/06/26 15:48:03;;;;;;;8.63;2.30;;;31.90;99.90;;;;;;5031783;28;20022;-87
2022/06/26 15:50:28;;;;;;;8.55;2.28;;;32.10;99.90;;;;;;5037310;28;20033;-91
2022/06/26 15:52:54;;;;;;;5.30;2.40;;;33.30;99.90;;;;;;5032378;28;20179;-81
2022/06/26 15:55:20;;;;;;;6.13;2.22;;;33.10;99.90;;;;;;5040620;28;20384;-87
2022/06/26 15:57:46;;;;;;;15.02;2.40;;;33.20;99.90;;;;;;5051205;28;20032;-84
2022/06/26 16:00:12;;;;;;;7.25;2.47;;;33.00;99.90;;;;;;5037620;28;20037;-82
2022/06/26 16:02:41;;;;;;;5.65;2.53;;;32.90;99.90;;;;;;5028238;28;20135;-85
2022/06/26 16:05:08;;;;;;;5.38;2.22;;;32.80;99.90;;;;;;5040466;28;20036;-94
2022/06/26 16:07:34;;;;;;;5.15;1.95;;;32.50;99.90;;;;;;5035747;28;20537;-86
2022/06/26 16:09:59;;;;;;;7.20;1.90;;;32.70;99.90;;;;;;5039006;28;20033;-84
2022/06/26 16:12:25;;;;;;;5.72;1.80;;;32.50;99.90;;;;;;5032790;28;20030;-85
2022/06/26 16:14:51;;;;;;;8.52;2.20;;;32.00;99.90;;;;;;5038129;28;20036;-86
2022/06/26 16:17:17;;;;;;;5.32;2.15;;;32.00;99.90;;;;;;5034503;28;20095;-86
2022/06/26 16:19:43;;;;;;;6.22;2.17;;;31.90;99.90;;;;;;5036522;28;20032;-84
2022/06/26 16:27:38;;;;;;;5.75;2.40;;;31.90;99.90;;;;;;5035419;28;20083;-83
2022/06/26 16:30:05;;;;;;;6.63;2.35;;;31.60;99.90;;;;;;5035749;28;20026;-87
2022/06/26 16:32:31;;;;;;;6.97;2.60;;;31.40;99.90;;;;;;5020833;28;20487;-88
2022/06/26 16:34:58;;;;;;;6.00;2.42;;;31.10;99.90;;;;;;5036013;28;20484;-89
2022/06/26 16:37:24;;;;;;;10.15;2.50;;;31.30;99.90;;;;;;5053750;28;20043;-89
2022/06/26 16:39:50;;;;;;;5.82;2.50;;;31.20;99.90;;;;;;5045386;28;20032;-91
2022/06/26 16:42:16;;;;;;;7.40;2.45;;;30.80;99.90;;;;;;5015656;28;20026;-86
2022/06/26 16:44:42;;;;;;;7.70;2.47;;;30.30;99.90;;;;;;5031707;28;20458;-92
2022/06/26 16:47:07;;;;;;;7.85;2.35;;;30.60;99.90;;;;;;5036150;28;20022;-85
2022/06/26 16:49:34;;;;;;;5.15;2.20;;;30.90;99.90;;;;;;5038855;28;20030;-85
2022/06/26 16:52:00;;;;;;;9.50;2.40;;;30.70;99.90;;;;;;5036238;28;20084;-84
2022/06/26 16:54:27;;;;;;;6.28;2.75;;;30.70;99.90;;;;;;5036978;28;20132;-84
2022/06/26 16:56:52;;;;;;;7.32;3.22;;;30.80;99.90;;;;;;5050747;28;20025;-84
2022/06/26 16:59:18;;;;;;;9.75;3.08;;;30.70;99.90;;;;;;5047771;28;20036;-83
2022/06/26 17:01:44;;;;;;;6.53;2.53;;;30.90;99.90;;;;;;5029012;28;20152;-84
2022/06/26 17:04:10;;;;;;;13.85;2.90;;;30.70;99.90;;;;;;5024145;28;20021;-84
2022/06/26 17:06:35;;;;;;;6.45;2.10;;;30.70;99.90;;;;;;5043269;28;20025;-83
2022/06/26 17:09:01;;;;;;;8.90;3.58;;;30.60;99.90;;;;;;5035649;28;20017;-83
2022/06/26 17:11:27;;;;;;;3.88;2.08;;;30.50;99.90;;;;;;5041762;28;20358;-84
2022/06/26 17:13:53;;;;;;;6.53;2.72;;;30.40;99.90;;;;;;5035230;28;20488;-84
2022/06/26 17:16:19;;;;;;;11.00;3.80;;;30.20;99.90;;;;;;5048644;28;20035;-85
2022/06/26 17:18:45;;;;;;;7.35;2.63;;;30.30;99.90;;;;;;5049923;28;20033;-85
2022/06/26 17:21:11;;;;;;;10.38;5.18;;;30.30;99.90;;;;;;5037812;28;20024;-85
2022/06/26 17:23:38;;;;;;;17.65;8.18;;;30.50;99.90;;;;;;5033756;28;20033;-85
2022/06/26 17:26:04;;;;;;;14.02;4.32;;;30.70;99.90;;;;;;5047318;28;20056;-86
2022/06/26 17:28:31;;;;;;;13.73;7.82;;;30.60;99.90;;;;;;5050940;28;20025;-85
2022/06/26 17:30:57;;;;;;;17.40;8.80;;;30.70;99.90;;;;;;5047646;28;20021;-86
2022/06/26 17:33:23;;;;;;;7.22;3.60;;;30.70;99.90;;;;;;5034531;28;20018;-85
2022/06/26 17:35:49;;;;;;;13.18;6.03;;;30.60;99.90;;;;;;5045141;28;20029;-84
2022/06/26 17:38:15;;;;;;;7.97;3.22;;;30.40;99.90;;;;;;5052390;28;20025;-84
2022/06/26 17:40:42;;;;;;;6.30;2.92;;;30.40;99.90;;;;;;5043079;28;20037;-86
2022/06/26 17:43:08;;;;;;;5.28;2.28;;;30.10;99.90;;;;;;5033577;28;20036;-85
2022/06/26 17:45:34;;;;;;;5.78;2.60;;;29.90;99.90;;;;;;5043126;28;20029;-85
2022/06/26 17:48:01;;;;;;;5.88;2.15;;;29.90;99.90;;;;;;5014041;28;20084;-85
2022/06/26 17:50:28;;;;;;;3.40;2.13;;;29.90;99.90;;;;;;5041782;28;20458;-85
2022/06/26 17:52:56;;;;;;;4.95;2.20;;;30.00;99.90;;;;;;5052526;28;20041;-85
2022/06/26 17:55:23;;;;;;;9.05;2.88;;;30.10;99.90;;;;;;5047132;28;20028;-86
2022/06/26 17:57:49;;;;;;;7.40;2.20;;;30.20;99.90;;;;;;5050327;28;20033;-85
2022/06/26 18:00:22;;;;;;;8.23;2.40;;;29.90;99.90;;;;;;5039896;28;20024;-85
2022/06/26 18:02:50;;;;;;;10.45;6.00;;;29.60;99.90;;;;;;5035862;28;20092;-85
2022/06/26 18:05:17;;;;;;;9.27;4.18;;;29.20;99.90;;;;;;5042258;28;20029;-85
2022/06/26 18:07:42;;;;;;;17.98;6.82;;;29.10;99.90;;;;;;5050172;28;20387;-85
2022/06/26 18:10:08;;;;;;;9.25;4.20;;;28.90;99.90;;;;;;5044853;28;20107;-85
2022/06/26 18:12:35;;;;;;;7.40;2.95;;;28.90;99.90;;;;;;5034570;28;20544;-84
2022/06/26 18:15:01;;;;;;;17.13;9.57;;;28.80;99.90;;;;;;5041078;28;20116;-84
2022/06/26 18:17:27;;;;;;;17.15;8.57;;;28.60;99.90;;;;;;5050242;28;20067;-84
2022/06/26 18:19:53;;;;;;;9.13;4.05;;;28.50;99.90;;;;;;5043868;28;20026;-81
2022/06/26 18:22:19;;;;;;;5.53;2.83;;;28.40;99.90;;;;;;5034846;28;20052;-81
2022/06/26 18:24:45;;;;;;;5.30;2.30;;;28.20;99.90;;;;;;5037946;28;20032;-82
2022/06/26 18:27:12;;;;;;;5.88;2.78;;;28.10;99.90;;;;;;5034551;28;20080;-85
2022/06/26 18:29:39;;;;;;;10.35;2.65;;;27.90;99.90;;;;;;5036044;28;20112;-85
2022/06/26 18:32:05;;;;;;;9.18;2.65;;;27.70;99.90;;;;;;5041595;28;20036;-87
2022/06/26 18:34:31;;;;;;;15.90;3.20;;;27.50;99.90;;;;;;5035328;28;20040;-86
2022/06/26 18:36:58;;;;;;;6.85;3.00;;;27.30;99.90;;;;;;5049707;28;20025;-86
2022/06/26 18:39:26;;;;;;;8.23;2.90;;;27.10;99.90;;;;;;5045870;28;20036;-85
2022/06/26 18:41:52;;;;;;;4.85;2.63;;;26.90;99.90;;;;;;5037175;28;20736;-91
2022/06/26 18:44:18;;;;;;;12.40;2.95;;;26.70;99.90;;;;;;5034995;28;20021;-84
2022/06/26 18:46:43;;;;;;;7.32;2.90;;;26.50;99.90;;;;;;5047990;28;20024;-91
2022/06/26 18:49:10;;;;;;;16.05;3.17;;;26.40;99.90;;;;;;5047817;28;20049;-85
2022/06/26 18:51:36;;;;;;;12.07;2.80;;;26.30;99.90;;;;;;5047902;28;20017;-84
2022/06/26 18:54:02;;;;;;;5.90;3.08;;;26.30;99.90;;;;;;5048446;28;20033;-87
2022/06/26 18:56:29;;;;;;;6.00;2.85;;;26.20;99.90;;;;;;5033763;28;20029;-87
2022/06/26 18:58:55;;;;;;;6.22;3.42;;;26.10;99.90;;;;;;5033267;28;20107;-86
2022/06/26 19:01:21;;;;;;;9.75;2.97;;;26.10;99.90;;;;;;5046139;28;20021;-86
2022/06/26 19:03:46;;;;;;;8.63;4.25;;;26.10;99.90;;;;;;5033424;28;20031;-87
2022/06/26 19:06:12;;;;;;;10.60;6.07;;;26.00;99.90;;;;;;5040628;28;20104;-87
2022/06/26 19:08:38;;;;;;;8.07;4.13;;;26.00;99.90;;;;;;5031616;28;20025;-87
2022/06/26 19:14:38;;;;;;;8.73;3.63;;;26.00;99.90;;;;;;5043836;28;20147;-86
2022/06/26 19:16:33;;;;;;;8.02;3.30;;;26.00;99.90;;;;;;5033916;28;20088;-87
2022/06/26 19:18:59;;;;;;;7.88;3.65;;;25.90;99.90;;;;;;5033332;28;20476;-87
2022/06/26 19:21:25;;;;;;;10.68;3.50;;;25.90;99.90;;;;;;5048613;28;20151;-87
2022/06/26 19:23:50;;;;;;;9.10;3.30;;;25.90;99.90;;;;;;5050333;28;20480;-87
2022/06/26 19:26:16;;;;;;;6.53;3.25;;;25.80;99.90;;;;;;5035903;28;20021;-87
2022/06/26 19:28:42;;;;;;;9.73;3.13;;;25.80;99.90;;;;;;5032148;28;20047;-86
2022/06/26 19:31:07;;;;;;;8.63;3.70;;;25.70;99.90;;;;;;5048867;28;20032;-88
2022/06/26 19:33:33;;;;;;;11.77;4.22;;;25.70;99.90;;;;;;5032416;28;20033;-88
2022/06/26 19:35:59;;;;;;;6.07;3.70;;;25.60;99.90;;;;;;5035345;28;20017;-85
2022/06/26 19:38:24;;;;;;;13.40;3.35;;;25.50;99.90;;;;;;5031934;28;20025;-90
2022/06/26 19:40:50;;;;;;;6.05;3.17;;;25.50;99.90;;;;;;5040413;28;20327;-88
2022/06/26 19:43:16;;;;;;;11.07;3.13;;;25.40;99.90;;;;;;5031179;28;20071;-89
2022/06/26 19:45:41;;;;;;;8.93;3.30;;;25.40;99.90;;;;;;5041840;28;20535;-88
2022/06/26 19:48:07;;;;;;;6.30;2.92;;;25.20;99.90;;;;;;5030099;28;20756;-87
2022/06/26 19:50:37;;;;;;;6.72;3.35;;;25.10;99.90;;;;;;5041537;28;20128;-89
2022/06/26 19:53:03;;;;;;;10.80;3.65;;;25.10;99.90;;;;;;5030397;28;20468;-92
2022/06/26 19:55:29;;;;;;;11.07;4.30;;;25.00;99.90;;;;;;5043168;28;20498;-91
2022/06/26 19:57:56;;;;;;;11.27;3.85;;;25.00;99.90;;;;;;5031140;28;20025;-92
2022/06/26 20:00:23;;;;;;;5.45;2.97;;;25.00;99.90;;;;;;5045633;28;20040;-90
2022/06/26 20:02:50;;;;;;;10.70;3.63;;;24.90;99.90;;;;;;5034336;28;20017;-92
2022/06/26 20:05:15;;;;;;;6.65;3.25;;;24.80;99.90;;;;;;5039937;28;20021;-91
2022/06/26 20:07:42;;;;;;;7.10;3.13;;;24.70;99.90;;;;;;5048512;28;20094;-91
2022/06/26 20:10:09;;;;;;;7.68;2.88;;;24.70;99.90;;;;;;5038288;28;20025;-91
2022/06/26 20:12:35;;;;;;;6.15;2.92;;;24.60;99.90;;;;;;5029781;28;20145;-89
2022/06/26 20:15:02;;;;;;;4.43;2.63;;;24.60;99.90;;;;;;5038761;28;20029;-89
2022/06/26 20:17:27;;;;;;;6.07;2.75;;;24.50;99.90;;;;;;5048203;28;20108;-92
2022/06/26 20:19:53;;;;;;;6.78;2.72;;;24.50;99.90;;;;;;5045348;28;20115;-91
2022/06/26 20:22:19;;;;;;;8.13;2.78;;;24.40;99.90;;;;;;5050134;28;20044;-85
2022/06/26 20:24:45;;;;;;;5.18;2.45;;;24.40;99.90;;;;;;5042961;28;20588;-88
2022/06/26 20:27:11;;;;;;;7.38;2.65;;;24.30;99.90;;;;;;5044712;28;20021;-87
2022/06/26 20:29:37;;;;;;;7.38;2.55;;;24.30;99.90;;;;;;5043518;28;20036;-86
2022/06/26 20:32:03;;;;;;;7.22;2.75;;;24.20;99.90;;;;;;5029157;28;20025;-88
2022/06/26 20:34:29;;;;;;;7.65;2.40;;;24.20;99.90;;;;;;5024876;28;20048;-89
2022/06/26 20:36:55;;;;;;;7.55;2.20;;;24.10;99.90;;;;;;5042526;28;20021;-93
2022/06/26 20:39:21;;;;;;;8.45;2.55;;;24.00;99.90;;;;;;5047632;28;20479;-91
2022/06/26 20:41:47;;;;;;;4.50;2.60;;;24.00;99.90;;;;;;5046459;28;20079;-89
2022/06/26 20:44:12;;;;;;;6.43;2.80;;;24.00;99.90;;;;;;5045346;28;20029;-93
2022/06/26 20:46:38;;;;;;;5.22;2.60;;;24.00;99.90;;;;;;5038653;28;20026;-91
2022/06/26 20:49:05;;;;;;;7.07;2.22;;;23.90;99.90;;;;;;5034755;28;20295;-87
2022/06/26 20:51:30;;;;;;;6.97;2.45;;;23.90;99.90;;;;;;5047673;28;20025;-93
2022/06/26 20:53:57;;;;;;;5.57;2.35;;;23.80;99.90;;;;;;5046004;28;20484;-87
2022/06/26 20:56:22;;;;;;;9.15;2.50;;;23.80;99.90;;;;;;5034072;28;20030;-90
2022/06/26 20:58:50;;;;;;;7.40;2.63;;;23.70;99.90;;;;;;5032532;28;20403;-87
2022/06/26 21:01:18;;;;;;;8.02;2.45;;;23.70;99.90;;;;;;5032332;28;20021;-93
2022/06/26 21:03:45;;;;;;;5.22;2.67;;;23.70;99.90;;;;;;5015352;28;20494;-93
2022/06/26 21:06:11;;;;;;;5.10;2.38;;;23.70;99.90;;;;;;5034379;28;20075;-89
2022/06/26 21:08:39;;;;;;;4.63;2.25;;;23.70;99.90;;;;;;5030679;28;20038;-94
2022/06/26 21:11:05;;;;;;;6.22;2.20;;;23.70;99.90;;;;;;5046440;28;20029;-89
2022/06/26 21:13:31;;;;;;;8.15;2.28;;;23.70;99.90;;;;;;5039121;28;20132;-89
2022/06/26 21:15:57;;;;;;;6.95;2.05;;;23.70;99.90;;;;;;5035959;28;20163;-91
2022/06/26 21:18:22;;;;;;;4.28;2.22;;;23.70;99.90;;;;;;5029204;28;20042;-91